Leesburg, VA (20175)

1:35 PM EDT on July 29, 2016 (GMT -0400)
Emerald Park Estates | | Change Station

Elev 424 ft 39.08 °N, 77.59 °W | Updated 8 seconds ago

Mostly Cloudy
Mostly Cloudy
84.2 °F
Feels Like 90 °F
N
1.0
Wind Variable Wind from NNE
Gusts 3.0 mph

Today
High -- | Low -- °F
--% Chance of Precip.
Yesterday
High -- | Low -- °F
Precip. -- in
Pressure 29.90 in
Visibility 10.0 miles
Clouds Mostly Cloudy 3600 ft
Heat Index 90 °F
Dew Point 72 °F
Humidity 67%
Rainfall 0.68 in
Snow Depth Not available.
6:08 AM 8:24 PM
Waning Crescent, 20% visible
METAR KJYO 291715Z AUTO 29008KT 10SM BKN036 30/22 A2990 RMK AO2
Pressure 29.90 in
Visibility 10.0 miles
Clouds Mostly Cloudy 3600 ft
Heat Index 90 °F
Dew Point 72 °F
Humidity 67%
Rainfall 0.68 in
Snow Depth Not available.
6:08 AM 8:24 PM
Waning Crescent, 20% visible
METAR KJYO 291715Z AUTO 29008KT 10SM BKN036 30/22 A2990 RMK AO2

10-Day Weather Forecast

Almanac

Astronomy

Jul. 29, 2016 Rise Set
Actual Time
Civil Twilight
Nautical Twilight
Astronomical Twilight
Moon
Length of Visible Light
Length of Day
Tomorrow will be .
, % of the Moon is Illuminated

Today's Extremes

State Highs State Lows

Community

WunderPhotos

Upload Photos

1,928,382 photos uploaded!

WunderBlog® & News

Nearby

Air Quality

  Air Quality AQ Index Pollutant
Not available.

Snow Depth

Station Depth Elevation

Earthquake Activity

City Distance Mag. Time & Date
Minimum magnitude displayed is 2.5.

Coastal Water Temperatures

Place Temperature

Stations

Nearby Weather Stations

Station Location Temp. Windchill Dew Point Humidity Wind Precip. Elev Updated Type
                   

Watches & Warnings

There are currently no watches in effect.